sensor_id;sensor_type;location;lat;lon;timestamp;P1;durP1;ratioP1;P2;durP2;ratioP2
70953;SDS011;58618;47.490;8.736;2023-04-03T00:01:27;2.47;;;1.30;;
70953;SDS011;58618;47.490;8.736;2023-04-03T00:04:14;2.00;;;1.42;;
70953;SDS011;58618;47.490;8.736;2023-04-03T00:07:02;3.55;;;1.73;;
70953;SDS011;58618;47.490;8.736;2023-04-03T00:09:50;2.80;;;1.73;;
70953;SDS011;58618;47.490;8.736;2023-04-03T00:12:38;4.15;;;1.42;;
70953;SDS011;58618;47.490;8.736;2023-04-03T00:15:25;3.13;;;1.90;;
70953;SDS011;58618;47.490;8.736;2023-04-03T00:18:12;5.40;;;1.83;;
70953;SDS011;58618;47.490;8.736;2023-04-03T00:21:00;4.18;;;1.92;;
70953;SDS011;58618;47.490;8.736;2023-04-03T00:23:47;4.33;;;2.10;;
70953;SDS011;58618;47.490;8.736;2023-04-03T00:26:35;4.22;;;1.92;;
70953;SDS011;58618;47.490;8.736;2023-04-03T00:29:23;2.45;;;1.70;;
70953;SDS011;58618;47.490;8.736;2023-04-03T00:32:10;4.30;;;2.20;;
70953;SDS011;58618;47.490;8.736;2023-04-03T00:34:58;2.78;;;1.48;;
70953;SDS011;58618;47.490;8.736;2023-04-03T00:37:45;3.20;;;2.23;;
70953;SDS011;58618;47.490;8.736;2023-04-03T00:40:39;3.03;;;1.70;;
70953;SDS011;58618;47.490;8.736;2023-04-03T00:43:31;3.95;;;2.35;;
70953;SDS011;58618;47.490;8.736;2023-04-03T00:46:18;2.70;;;1.92;;
70953;SDS011;58618;47.490;8.736;2023-04-03T00:49:06;3.83;;;2.00;;
70953;SDS011;58618;47.490;8.736;2023-04-03T00:51:53;4.00;;;2.20;;
70953;SDS011;58618;47.490;8.736;2023-04-03T00:54:43;4.85;;;2.70;;
70953;SDS011;58618;47.490;8.736;2023-04-03T00:57:32;5.03;;;2.13;;
70953;SDS011;58618;47.490;8.736;2023-04-03T01:00:22;5.53;;;2.78;;
70953;SDS011;58618;47.490;8.736;2023-04-03T01:03:11;4.45;;;2.58;;
70953;SDS011;58618;47.490;8.736;2023-04-03T01:05:58;8.43;;;3.33;;
70953;SDS011;58618;47.490;8.736;2023-04-03T01:08:47;4.95;;;2.63;;
70953;SDS011;58618;47.490;8.736;2023-04-03T01:11:35;4.05;;;2.30;;
70953;SDS011;58618;47.490;8.736;2023-04-03T01:14:23;5.10;;;2.65;;
70953;SDS011;58618;47.490;8.736;2023-04-03T01:17:31;6.22;;;3.00;;
70953;SDS011;58618;47.490;8.736;2023-04-03T01:23:49;5.72;;;2.97;;
70953;SDS011;58618;47.490;8.736;2023-04-03T01:26:43;4.93;;;3.20;;
70953;SDS011;58618;47.490;8.736;2023-04-03T01:29:31;4.07;;;2.47;;
70953;SDS011;58618;47.490;8.736;2023-04-03T01:32:20;5.47;;;3.22;;
70953;SDS011;58618;47.490;8.736;2023-04-03T01:35:07;7.90;;;3.73;;
70953;SDS011;58618;47.490;8.736;2023-04-03T01:37:56;5.93;;;3.30;;
70953;SDS011;58618;47.490;8.736;2023-04-03T01:40:43;5.75;;;2.92;;
70953;SDS011;58618;47.490;8.736;2023-04-03T01:43:30;6.35;;;3.72;;
70953;SDS011;58618;47.490;8.736;2023-04-03T01:46:18;4.90;;;2.97;;
70953;SDS011;58618;47.490;8.736;2023-04-03T01:49:08;5.90;;;3.77;;
70953;SDS011;58618;47.490;8.736;2023-04-03T01:51:55;4.95;;;2.88;;
70953;SDS011;58618;47.490;8.736;2023-04-03T01:54:43;5.07;;;3.15;;
70953;SDS011;58618;47.490;8.736;2023-04-03T01:57:30;3.33;;;2.20;;
70953;SDS011;58618;47.490;8.736;2023-04-03T02:00:17;4.10;;;2.60;;
70953;SDS011;58618;47.490;8.736;2023-04-03T02:03:05;1.83;;;1.33;;
70953;SDS011;58618;47.490;8.736;2023-04-03T02:05:53;3.97;;;2.55;;
70953;SDS011;58618;47.490;8.736;2023-04-03T02:08:41;5.95;;;3.08;;
70953;SDS011;58618;47.490;8.736;2023-04-03T02:11:29;3.63;;;2.10;;
70953;SDS011;58618;47.490;8.736;2023-04-03T02:14:16;4.88;;;2.88;;
70953;SDS011;58618;47.490;8.736;2023-04-03T02:17:04;5.53;;;2.63;;
70953;SDS011;58618;47.490;8.736;2023-04-03T02:19:54;4.27;;;2.60;;
70953;SDS011;58618;47.490;8.736;2023-04-03T02:22:43;4.15;;;2.45;;
70953;SDS011;58618;47.490;8.736;2023-04-03T02:25:30;4.57;;;2.38;;
70953;SDS011;58618;47.490;8.736;2023-04-03T02:28:18;4.70;;;2.55;;
70953;SDS011;58618;47.490;8.736;2023-04-03T02:31:06;4.30;;;2.25;;
70953;SDS011;58618;47.490;8.736;2023-04-03T02:33:54;4.83;;;2.10;;
70953;SDS011;58618;47.490;8.736;2023-04-03T02:36:41;4.60;;;2.30;;
70953;SDS011;58618;47.490;8.736;2023-04-03T02:39:30;4.95;;;2.80;;
70953;SDS011;58618;47.490;8.736;2023-04-03T02:42:18;3.88;;;2.47;;
70953;SDS011;58618;47.490;8.736;2023-04-03T02:45:06;5.03;;;3.00;;
70953;SDS011;58618;47.490;8.736;2023-04-03T02:47:54;3.83;;;2.20;;
70953;SDS011;58618;47.490;8.736;2023-04-03T02:50:41;3.65;;;1.77;;
70953;SDS011;58618;47.490;8.736;2023-04-03T02:53:28;4.47;;;2.28;;
70953;SDS011;58618;47.490;8.736;2023-04-03T02:56:17;3.85;;;2.28;;
70953;SDS011;58618;47.490;8.736;2023-04-03T02:59:06;3.25;;;2.00;;
70953;SDS011;58618;47.490;8.736;2023-04-03T03:01:53;5.27;;;2.80;;
70953;SDS011;58618;47.490;8.736;2023-04-03T03:04:41;6.57;;;3.70;;
70953;SDS011;58618;47.490;8.736;2023-04-03T03:07:29;5.65;;;2.72;;
70953;SDS011;58618;47.490;8.736;2023-04-03T03:10:17;4.88;;;2.72;;
70953;SDS011;58618;47.490;8.736;2023-04-03T03:13:06;6.60;;;4.35;;
70953;SDS011;58618;47.490;8.736;2023-04-03T03:15:53;4.83;;;2.87;;
70953;SDS011;58618;47.490;8.736;2023-04-03T03:18:41;3.83;;;2.47;;
70953;SDS011;58618;47.490;8.736;2023-04-03T03:21:28;4.03;;;2.55;;
70953;SDS011;58618;47.490;8.736;2023-04-03T03:24:15;4.68;;;2.33;;
70953;SDS011;58618;47.490;8.736;2023-04-03T03:27:03;7.47;;;3.17;;
70953;SDS011;58618;47.490;8.736;2023-04-03T03:29:52;4.60;;;2.07;;
70953;SDS011;58618;47.490;8.736;2023-04-03T03:32:40;5.00;;;2.65;;
70953;SDS011;58618;47.490;8.736;2023-04-03T03:35:27;5.10;;;2.78;;
70953;SDS011;58618;47.490;8.736;2023-04-03T03:38:14;3.80;;;2.33;;
70953;SDS011;58618;47.490;8.736;2023-04-03T03:41:02;5.45;;;3.08;;
70953;SDS011;58618;47.490;8.736;2023-04-03T03:43:49;4.13;;;2.40;;
70953;SDS011;58618;47.490;8.736;2023-04-03T03:46:38;3.92;;;2.47;;
70953;SDS011;58618;47.490;8.736;2023-04-03T03:49:25;3.53;;;2.33;;
70953;SDS011;58618;47.490;8.736;2023-04-03T03:52:13;4.88;;;2.58;;
70953;SDS011;58618;47.490;8.736;2023-04-03T03:55:00;5.53;;;2.75;;
70953;SDS011;58618;47.490;8.736;2023-04-03T03:57:48;6.87;;;3.27;;
70953;SDS011;58618;47.490;8.736;2023-04-03T04:00:35;3.05;;;2.13;;
70953;SDS011;58618;47.490;8.736;2023-04-03T04:03:24;3.67;;;2.20;;
70953;SDS011;58618;47.490;8.736;2023-04-03T04:06:11;4.03;;;2.38;;
70953;SDS011;58618;47.490;8.736;2023-04-03T04:08:58;5.80;;;3.25;;
70953;SDS011;58618;47.490;8.736;2023-04-03T04:11:46;4.43;;;2.70;;
70953;SDS011;58618;47.490;8.736;2023-04-03T04:14:33;3.55;;;2.25;;
70953;SDS011;58618;47.490;8.736;2023-04-03T04:17:20;5.95;;;2.70;;
70953;SDS011;58618;47.490;8.736;2023-04-03T04:20:10;3.55;;;2.38;;
70953;SDS011;58618;47.490;8.736;2023-04-03T04:22:58;5.28;;;2.60;;
70953;SDS011;58618;47.490;8.736;2023-04-03T04:25:45;2.67;;;2.37;;
70953;SDS011;58618;47.490;8.736;2023-04-03T04:28:33;3.60;;;2.20;;
70953;SDS011;58618;47.490;8.736;2023-04-03T04:31:21;3.92;;;2.47;;
70953;SDS011;58618;47.490;8.736;2023-04-03T04:34:08;4.03;;;2.78;;
70953;SDS011;58618;47.490;8.736;2023-04-03T04:36:57;6.10;;;2.90;;
70953;SDS011;58618;47.490;8.736;2023-04-03T04:39:44;4.47;;;2.30;;
70953;SDS011;58618;47.490;8.736;2023-04-03T04:42:31;3.70;;;2.40;;
70953;SDS011;58618;47.490;8.736;2023-04-03T04:45:19;3.63;;;2.45;;
70953;SDS011;58618;47.490;8.736;2023-04-03T04:48:06;3.63;;;1.98;;
70953;SDS011;58618;47.490;8.736;2023-04-03T04:50:54;3.95;;;2.35;;
70953;SDS011;58618;47.490;8.736;2023-04-03T04:53:42;3.40;;;2.00;;
70953;SDS011;58618;47.490;8.736;2023-04-03T04:56:29;4.50;;;2.47;;
70953;SDS011;58618;47.490;8.736;2023-04-03T04:59:17;3.83;;;2.20;;
70953;SDS011;58618;47.490;8.736;2023-04-03T05:02:04;3.50;;;1.88;;
70953;SDS011;58618;47.490;8.736;2023-04-03T05:04:52;2.25;;;1.35;;
70953;SDS011;58618;47.490;8.736;2023-04-03T05:07:39;2.40;;;1.23;;
70953;SDS011;58618;47.490;8.736;2023-04-03T05:10:28;2.85;;;1.77;;
70953;SDS011;58618;47.490;8.736;2023-04-03T05:13:16;4.68;;;2.85;;
70953;SDS011;58618;47.490;8.736;2023-04-03T05:16:04;3.65;;;2.00;;
70953;SDS011;58618;47.490;8.736;2023-04-03T05:18:51;3.65;;;2.00;;
70953;SDS011;58618;47.490;8.736;2023-04-03T05:21:39;3.70;;;2.13;;
70953;SDS011;58618;47.490;8.736;2023-04-03T05:24:26;3.13;;;1.80;;
70953;SDS011;58618;47.490;8.736;2023-04-03T05:27:15;3.92;;;2.40;;
70953;SDS011;58618;47.490;8.736;2023-04-03T05:30:03;3.63;;;2.33;;
70953;SDS011;58618;47.490;8.736;2023-04-03T05:32:50;2.30;;;1.50;;
70953;SDS011;58618;47.490;8.736;2023-04-03T05:35:38;2.30;;;1.37;;
70953;SDS011;58618;47.490;8.736;2023-04-03T05:38:27;4.57;;;1.58;;
70953;SDS011;58618;47.490;8.736;2023-04-03T05:41:15;2.72;;;1.75;;
70953;SDS011;58618;47.490;8.736;2023-04-03T05:44:04;3.67;;;2.40;;
70953;SDS011;58618;47.490;8.736;2023-04-03T05:46:51;2.53;;;1.92;;
70953;SDS011;58618;47.490;8.736;2023-04-03T05:49:38;1.50;;;1.17;;
70953;SDS011;58618;47.490;8.736;2023-04-03T05:52:27;2.10;;;1.38;;
70953;SDS011;58618;47.490;8.736;2023-04-03T05:55:15;4.45;;;2.28;;
70953;SDS011;58618;47.490;8.736;2023-04-03T05:58:03;2.33;;;1.50;;
70953;SDS011;58618;47.490;8.736;2023-04-03T06:00:52;4.63;;;2.50;;
70953;SDS011;58618;47.490;8.736;2023-04-03T06:03:39;3.77;;;2.00;;
70953;SDS011;58618;47.490;8.736;2023-04-03T06:06:26;2.85;;;1.70;;
70953;SDS011;58618;47.490;8.736;2023-04-03T06:09:30;5.72;;;1.85;;
70953;SDS011;58618;47.490;8.736;2023-04-03T06:12:18;2.75;;;2.22;;
70953;SDS011;58618;47.490;8.736;2023-04-03T06:15:07;3.10;;;1.95;;
70953;SDS011;58618;47.490;8.736;2023-04-03T06:17:57;2.60;;;1.47;;
70953;SDS011;58618;47.490;8.736;2023-04-03T06:20:45;1.80;;;1.17;;
70953;SDS011;58618;47.490;8.736;2023-04-03T06:23:32;2.30;;;1.63;;
70953;SDS011;58618;47.490;8.736;2023-04-03T06:26:19;2.88;;;1.52;;
70953;SDS011;58618;47.490;8.736;2023-04-03T06:29:08;2.95;;;1.70;;
70953;SDS011;58618;47.490;8.736;2023-04-03T06:31:55;2.17;;;1.70;;
70953;SDS011;58618;47.490;8.736;2023-04-03T06:34:44;6.65;;;2.38;;
70953;SDS011;58618;47.490;8.736;2023-04-03T06:37:32;3.55;;;1.70;;
70953;SDS011;58618;47.490;8.736;2023-04-03T06:40:20;3.67;;;1.95;;
70953;SDS011;58618;47.490;8.736;2023-04-03T06:43:09;3.38;;;1.63;;
70953;SDS011;58618;47.490;8.736;2023-04-03T06:45:57;3.73;;;1.80;;
70953;SDS011;58618;47.490;8.736;2023-04-03T06:48:44;4.40;;;1.98;;
70953;SDS011;58618;47.490;8.736;2023-04-03T06:51:34;4.80;;;1.80;;
70953;SDS011;58618;47.490;8.736;2023-04-03T06:54:22;3.47;;;1.98;;
70953;SDS011;58618;47.490;8.736;2023-04-03T06:57:09;2.63;;;1.55;;
70953;SDS011;58618;47.490;8.736;2023-04-03T06:59:56;1.93;;;1.53;;
70953;SDS011;58618;47.490;8.736;2023-04-03T07:02:44;2.72;;;1.13;;
70953;SDS011;58618;47.490;8.736;2023-04-03T07:05:32;3.20;;;1.88;;
70953;SDS011;58618;47.490;8.736;2023-04-03T07:08:21;3.00;;;1.63;;
70953;SDS011;58618;47.490;8.736;2023-04-03T07:11:09;5.78;;;2.10;;
70953;SDS011;58618;47.490;8.736;2023-04-03T07:13:57;2.97;;;1.67;;
70953;SDS011;58618;47.490;8.736;2023-04-03T07:16:44;2.97;;;1.77;;
70953;SDS011;58618;47.490;8.736;2023-04-03T07:19:32;4.15;;;2.40;;
70953;SDS011;58618;47.490;8.736;2023-04-03T07:22:19;3.42;;;2.03;;
70953;SDS011;58618;47.490;8.736;2023-04-03T07:25:08;3.13;;;1.88;;
70953;SDS011;58618;47.490;8.736;2023-04-03T07:27:56;2.80;;;1.53;;
70953;SDS011;58618;47.490;8.736;2023-04-03T07:30:44;2.72;;;1.50;;
70953;SDS011;58618;47.490;8.736;2023-04-03T07:33:34;2.97;;;1.40;;
70953;SDS011;58618;47.490;8.736;2023-04-03T07:36:22;2.38;;;1.63;;
70953;SDS011;58618;47.490;8.736;2023-04-03T07:39:10;1.73;;;1.10;;
70953;SDS011;58618;47.490;8.736;2023-04-03T07:41:58;3.27;;;1.70;;
70953;SDS011;58618;47.490;8.736;2023-04-03T07:44:46;2.67;;;1.40;;
70953;SDS011;58618;47.490;8.736;2023-04-03T07:47:33;1.85;;;1.30;;
70953;SDS011;58618;47.490;8.736;2023-04-03T07:50:20;2.63;;;1.70;;
70953;SDS011;58618;47.490;8.736;2023-04-03T07:53:08;2.92;;;1.80;;
70953;SDS011;58618;47.490;8.736;2023-04-03T07:55:58;2.07;;;1.40;;
70953;SDS011;58618;47.490;8.736;2023-04-03T07:58:49;3.08;;;1.95;;
70953;SDS011;58618;47.490;8.736;2023-04-03T08:01:37;2.88;;;1.98;;
70953;SDS011;58618;47.490;8.736;2023-04-03T08:04:24;2.25;;;1.20;;
70953;SDS011;58618;47.490;8.736;2023-04-03T08:07:12;1.98;;;1.40;;
70953;SDS011;58618;47.490;8.736;2023-04-03T08:10:00;1.97;;;1.27;;
70953;SDS011;58618;47.490;8.736;2023-04-03T08:12:47;2.30;;;1.77;;
70953;SDS011;58618;47.490;8.736;2023-04-03T08:15:36;1.88;;;1.33;;
70953;SDS011;58618;47.490;8.736;2023-04-03T08:18:24;3.45;;;1.52;;
70953;SDS011;58618;47.490;8.736;2023-04-03T08:21:12;1.88;;;1.40;;
70953;SDS011;58618;47.490;8.736;2023-04-03T08:24:00;2.47;;;1.70;;
70953;SDS011;58618;47.490;8.736;2023-04-03T08:26:47;3.28;;;2.22;;
70953;SDS011;58618;47.490;8.736;2023-04-03T08:29:34;2.45;;;1.60;;
70953;SDS011;58618;47.490;8.736;2023-04-03T08:32:25;4.65;;;1.98;;
70953;SDS011;58618;47.490;8.736;2023-04-03T08:35:12;1.65;;;1.10;;
70953;SDS011;58618;47.490;8.736;2023-04-03T08:38:00;4.97;;;1.40;;
70953;SDS011;58618;47.490;8.736;2023-04-03T08:40:47;2.22;;;1.40;;
70953;SDS011;58618;47.490;8.736;2023-04-03T08:43:51;1.98;;;1.52;;
70953;SDS011;58618;47.490;8.736;2023-04-03T08:46:56;2.40;;;1.30;;
70953;SDS011;58618;47.490;8.736;2023-04-03T08:49:51;4.20;;;1.80;;
70953;SDS011;58618;47.490;8.736;2023-04-03T08:52:42;1.90;;;1.50;;
70953;SDS011;58618;47.490;8.736;2023-04-03T08:55:33;2.70;;;1.45;;
70953;SDS011;58618;47.490;8.736;2023-04-03T08:58:24;2.60;;;1.77;;
70953;SDS011;58618;47.490;8.736;2023-04-03T09:01:17;3.03;;;1.60;;
70953;SDS011;58618;47.490;8.736;2023-04-03T09:04:09;5.35;;;1.85;;
70953;SDS011;58618;47.490;8.736;2023-04-03T09:07:02;2.60;;;1.27;;
70953;SDS011;58618;47.490;8.736;2023-04-03T09:09:57;2.55;;;1.50;;
70953;SDS011;58618;47.490;8.736;2023-04-03T09:12:48;3.60;;;1.70;;
70953;SDS011;58618;47.490;8.736;2023-04-03T09:15:40;2.38;;;1.60;;
70953;SDS011;58618;47.490;8.736;2023-04-03T09:18:28;3.10;;;1.90;;
70953;SDS011;58618;47.490;8.736;2023-04-03T09:21:20;2.80;;;1.70;;
70953;SDS011;58618;47.490;8.736;2023-04-03T09:24:14;3.75;;;1.70;;
70953;SDS011;58618;47.490;8.736;2023-04-03T09:27:03;2.20;;;1.50;;
70953;SDS011;58618;47.490;8.736;2023-04-03T09:29:54;3.42;;;1.80;;
70953;SDS011;58618;47.490;8.736;2023-04-03T09:32:44;2.70;;;1.90;;
70953;SDS011;58618;47.490;8.736;2023-04-03T09:35:34;2.10;;;1.20;;
70953;SDS011;58618;47.490;8.736;2023-04-03T09:38:22;2.80;;;1.58;;
70953;SDS011;58618;47.490;8.736;2023-04-03T09:41:21;2.60;;;1.55;;
70953;SDS011;58618;47.490;8.736;2023-04-03T09:44:20;2.55;;;1.45;;
70953;SDS011;58618;47.490;8.736;2023-04-03T09:47:19;2.17;;;1.90;;
70953;SDS011;58618;47.490;8.736;2023-04-03T09:50:20;2.73;;;1.60;;
70953;SDS011;58618;47.490;8.736;2023-04-03T09:53:24;6.35;;;1.80;;
70953;SDS011;58618;47.490;8.736;2023-04-03T09:56:20;2.63;;;1.45;;
70953;SDS011;58618;47.490;8.736;2023-04-03T09:59:13;2.53;;;1.50;;
70953;SDS011;58618;47.490;8.736;2023-04-03T10:02:03;2.58;;;1.30;;
70953;SDS011;58618;47.490;8.736;2023-04-03T10:05:25;5.00;;;1.50;;
70953;SDS011;58618;47.490;8.736;2023-04-03T10:08:20;3.10;;;1.60;;
70953;SDS011;58618;47.490;8.736;2023-04-03T10:11:12;3.40;;;2.05;;
70953;SDS011;58618;47.490;8.736;2023-04-03T10:14:03;2.53;;;1.55;;
70953;SDS011;58618;47.490;8.736;2023-04-03T10:16:52;4.70;;;2.17;;
70953;SDS011;58618;47.490;8.736;2023-04-03T10:19:49;2.87;;;1.70;;
70953;SDS011;58618;47.490;8.736;2023-04-03T10:22:44;4.15;;;1.70;;
70953;SDS011;58618;47.490;8.736;2023-04-03T10:25:41;4.13;;;1.85;;
70953;SDS011;58618;47.490;8.736;2023-04-03T10:28:38;2.78;;;1.67;;
70953;SDS011;58618;47.490;8.736;2023-04-03T10:31:34;2.92;;;2.15;;
70953;SDS011;58618;47.490;8.736;2023-04-03T10:34:29;4.43;;;2.13;;
70953;SDS011;58618;47.490;8.736;2023-04-03T10:37:21;3.40;;;1.85;;
70953;SDS011;58618;47.490;8.736;2023-04-03T10:40:15;2.75;;;1.88;;
70953;SDS011;58618;47.490;8.736;2023-04-03T10:43:14;4.85;;;2.47;;
70953;SDS011;58618;47.490;8.736;2023-04-03T10:46:08;3.88;;;1.75;;
70953;SDS011;58618;47.490;8.736;2023-04-03T10:49:05;3.20;;;1.80;;
70953;SDS011;58618;47.490;8.736;2023-04-03T10:52:06;2.53;;;1.75;;
70953;SDS011;58618;47.490;8.736;2023-04-03T10:55:02;4.28;;;2.08;;
70953;SDS011;58618;47.490;8.736;2023-04-03T10:58:04;3.25;;;1.90;;
70953;SDS011;58618;47.490;8.736;2023-04-03T11:00:53;3.25;;;1.77;;
70953;SDS011;58618;47.490;8.736;2023-04-03T11:03:45;3.07;;;1.50;;
70953;SDS011;58618;47.490;8.736;2023-04-03T11:06:37;4.15;;;2.40;;
70953;SDS011;58618;47.490;8.736;2023-04-03T11:09:28;6.93;;;2.40;;
70953;SDS011;58618;47.490;8.736;2023-04-03T11:12:21;3.55;;;2.38;;
70953;SDS011;58618;47.490;8.736;2023-04-03T11:15:13;1.95;;;1.40;;
70953;SDS011;58618;47.490;8.736;2023-04-03T11:18:04;3.30;;;1.73;;
70953;SDS011;58618;47.490;8.736;2023-04-03T11:20:58;3.08;;;1.85;;
70953;SDS011;58618;47.490;8.736;2023-04-03T11:23:51;2.90;;;1.58;;
70953;SDS011;58618;47.490;8.736;2023-04-03T11:26:40;3.25;;;1.83;;
70953;SDS011;58618;47.490;8.736;2023-04-03T11:29:31;2.85;;;1.70;;
70953;SDS011;58618;47.490;8.736;2023-04-03T11:32:32;2.73;;;1.60;;
70953;SDS011;58618;47.490;8.736;2023-04-03T11:35:28;3.30;;;2.17;;
70953;SDS011;58618;47.490;8.736;2023-04-03T11:38:19;3.53;;;2.35;;
70953;SDS011;58618;47.490;8.736;2023-04-03T11:41:13;3.22;;;2.10;;
70953;SDS011;58618;47.490;8.736;2023-04-03T11:44:02;3.75;;;2.08;;
70953;SDS011;58618;47.490;8.736;2023-04-03T11:46:52;3.93;;;2.03;;
70953;SDS011;58618;47.490;8.736;2023-04-03T11:49:54;2.85;;;1.95;;
70953;SDS011;58618;47.490;8.736;2023-04-03T11:53:01;2.13;;;1.60;;
70953;SDS011;58618;47.490;8.736;2023-04-03T11:59:19;4.60;;;2.55;;
70953;SDS011;58618;47.490;8.736;2023-04-03T12:05:26;3.67;;;2.03;;
70953;SDS011;58618;47.490;8.736;2023-04-03T12:08:15;4.43;;;2.40;;
70953;SDS011;58618;47.490;8.736;2023-04-03T12:11:14;2.88;;;1.98;;
70953;SDS011;58618;47.490;8.736;2023-04-03T12:14:04;2.50;;;1.90;;
70953;SDS011;58618;47.490;8.736;2023-04-03T12:17:02;2.87;;;1.57;;
70953;SDS011;58618;47.490;8.736;2023-04-03T12:19:50;2.63;;;1.50;;
70953;SDS011;58618;47.490;8.736;2023-04-03T12:22:37;5.35;;;2.60;;
70953;SDS011;58618;47.490;8.736;2023-04-03T12:28:36;3.63;;;1.80;;
70953;SDS011;58618;47.490;8.736;2023-04-03T12:31:25;2.40;;;1.53;;
70953;SDS011;58618;47.490;8.736;2023-04-03T12:34:37;2.85;;;1.98;;
70953;SDS011;58618;47.490;8.736;2023-04-03T12:37:46;1.92;;;1.55;;
70953;SDS011;58618;47.490;8.736;2023-04-03T12:40:42;2.50;;;1.58;;
70953;SDS011;58618;47.490;8.736;2023-04-03T12:43:38;2.95;;;1.98;;
70953;SDS011;58618;47.490;8.736;2023-04-03T12:46:36;1.73;;;1.50;;
70953;SDS011;58618;47.490;8.736;2023-04-03T12:49:37;3.63;;;2.28;;
70953;SDS011;58618;47.490;8.736;2023-04-03T12:52:30;4.80;;;1.75;;
70953;SDS011;58618;47.490;8.736;2023-04-03T12:55:21;3.28;;;2.03;;
70953;SDS011;58618;47.490;8.736;2023-04-03T12:58:21;2.78;;;2.05;;
70953;SDS011;58618;47.490;8.736;2023-04-03T13:01:11;3.47;;;2.07;;
70953;SDS011;58618;47.490;8.736;2023-04-03T13:04:00;2.25;;;1.58;;
70953;SDS011;58618;47.490;8.736;2023-04-03T13:06:51;2.78;;;1.85;;
70953;SDS011;58618;47.490;8.736;2023-04-03T13:09:38;2.70;;;1.67;;
70953;SDS011;58618;47.490;8.736;2023-04-03T13:12:26;5.00;;;2.33;;
70953;SDS011;58618;47.490;8.736;2023-04-03T13:15:14;2.20;;;1.63;;
70953;SDS011;58618;47.490;8.736;2023-04-03T13:18:03;3.35;;;1.63;;
70953;SDS011;58618;47.490;8.736;2023-04-03T13:20:51;3.10;;;1.90;;
70953;SDS011;58618;47.490;8.736;2023-04-03T13:23:42;3.53;;;2.00;;
70953;SDS011;58618;47.490;8.736;2023-04-03T13:26:33;3.75;;;2.30;;
70953;SDS011;58618;47.490;8.736;2023-04-03T13:29:21;3.50;;;1.90;;
70953;SDS011;58618;47.490;8.736;2023-04-03T13:32:13;2.00;;;1.38;;
70953;SDS011;58618;47.490;8.736;2023-04-03T13:38:23;2.50;;;1.23;;
70953;SDS011;58618;47.490;8.736;2023-04-03T13:41:24;4.78;;;1.45;;
70953;SDS011;58618;47.490;8.736;2023-04-03T13:44:18;2.20;;;1.30;;
70953;SDS011;58618;47.490;8.736;2023-04-03T13:47:18;2.42;;;1.40;;
70953;SDS011;58618;47.490;8.736;2023-04-03T13:50:13;3.50;;;2.00;;
70953;SDS011;58618;47.490;8.736;2023-04-03T13:53:03;3.38;;;1.88;;
70953;SDS011;58618;47.490;8.736;2023-04-03T13:55:59;2.55;;;1.48;;
70953;SDS011;58618;47.490;8.736;2023-04-03T13:59:01;3.87;;;1.90;;
70953;SDS011;58618;47.490;8.736;2023-04-03T14:01:53;2.50;;;1.38;;
70953;SDS011;58618;47.490;8.736;2023-04-03T14:04:47;2.05;;;1.63;;
70953;SDS011;58618;47.490;8.736;2023-04-03T14:07:38;2.40;;;1.52;;
70953;SDS011;58618;47.490;8.736;2023-04-03T14:10:26;4.18;;;2.00;;
70953;SDS011;58618;47.490;8.736;2023-04-03T14:13:13;2.67;;;1.57;;
70953;SDS011;58618;47.490;8.736;2023-04-03T14:16:04;2.45;;;1.50;;
70953;SDS011;58618;47.490;8.736;2023-04-03T14:18:52;4.70;;;1.60;;
70953;SDS011;58618;47.490;8.736;2023-04-03T14:21:46;2.05;;;1.42;;
70953;SDS011;58618;47.490;8.736;2023-04-03T14:25:07;2.45;;;1.42;;
70953;SDS011;58618;47.490;8.736;2023-04-03T14:27:56;3.10;;;1.70;;
70953;SDS011;58618;47.490;8.736;2023-04-03T14:30:49;2.47;;;1.45;;
70953;SDS011;58618;47.490;8.736;2023-04-03T14:33:47;2.10;;;1.50;;
70953;SDS011;58618;47.490;8.736;2023-04-03T14:36:35;2.90;;;1.65;;
70953;SDS011;58618;47.490;8.736;2023-04-03T14:39:23;2.45;;;1.55;;
70953;SDS011;58618;47.490;8.736;2023-04-03T14:42:12;2.40;;;1.40;;
70953;SDS011;58618;47.490;8.736;2023-04-03T14:45:02;4.53;;;1.50;;
70953;SDS011;58618;47.490;8.736;2023-04-03T14:51:57;2.72;;;1.52;;
70953;SDS011;58618;47.490;8.736;2023-04-03T14:54:46;3.42;;;2.10;;
70953;SDS011;58618;47.490;8.736;2023-04-03T14:57:39;1.93;;;1.70;;
70953;SDS011;58618;47.490;8.736;2023-04-03T15:00:27;1.95;;;1.17;;
70953;SDS011;58618;47.490;8.736;2023-04-03T15:03:15;2.60;;;1.92;;
70953;SDS011;58618;47.490;8.736;2023-04-03T15:06:04;2.38;;;1.48;;
70953;SDS011;58618;47.490;8.736;2023-04-03T15:08:54;2.20;;;1.70;;
70953;SDS011;58618;47.490;8.736;2023-04-03T15:11:41;2.30;;;1.80;;
70953;SDS011;58618;47.490;8.736;2023-04-03T15:14:28;3.05;;;1.80;;
70953;SDS011;58618;47.490;8.736;2023-04-03T15:17:16;2.50;;;1.73;;
70953;SDS011;58618;47.490;8.736;2023-04-03T15:20:10;2.42;;;1.40;;
70953;SDS011;58618;47.490;8.736;2023-04-03T15:22:59;2.65;;;1.83;;
70953;SDS011;58618;47.490;8.736;2023-04-03T15:25:49;1.93;;;1.50;;
70953;SDS011;58618;47.490;8.736;2023-04-03T15:28:37;2.05;;;1.52;;
70953;SDS011;58618;47.490;8.736;2023-04-03T15:31:26;2.97;;;1.92;;
70953;SDS011;58618;47.490;8.736;2023-04-03T15:34:14;2.90;;;1.88;;
70953;SDS011;58618;47.490;8.736;2023-04-03T15:37:01;2.20;;;1.50;;
70953;SDS011;58618;47.490;8.736;2023-04-03T15:39:49;3.00;;;1.70;;
70953;SDS011;58618;47.490;8.736;2023-04-03T15:42:38;2.70;;;1.38;;
70953;SDS011;58618;47.490;8.736;2023-04-03T15:45:27;3.72;;;1.63;;
70953;SDS011;58618;47.490;8.736;2023-04-03T15:48:16;2.85;;;1.80;;
70953;SDS011;58618;47.490;8.736;2023-04-03T15:51:05;1.77;;;1.40;;
70953;SDS011;58618;47.490;8.736;2023-04-03T15:53:52;2.20;;;1.23;;
70953;SDS011;58618;47.490;8.736;2023-04-03T15:56:40;2.50;;;1.75;;
70953;SDS011;58618;47.490;8.736;2023-04-03T15:59:28;4.00;;;1.70;;
70953;SDS011;58618;47.490;8.736;2023-04-03T16:02:17;1.65;;;1.25;;
70953;SDS011;58618;47.490;8.736;2023-04-03T16:05:05;2.55;;;1.70;;
70953;SDS011;58618;47.490;8.736;2023-04-03T16:07:53;2.37;;;1.53;;
70953;SDS011;58618;47.490;8.736;2023-04-03T16:10:41;4.05;;;2.30;;
70953;SDS011;58618;47.490;8.736;2023-04-03T16:13:31;2.90;;;1.90;;
70953;SDS011;58618;47.490;8.736;2023-04-03T16:16:20;3.33;;;1.70;;
70953;SDS011;58618;47.490;8.736;2023-04-03T16:19:09;2.33;;;1.63;;
70953;SDS011;58618;47.490;8.736;2023-04-03T16:21:57;2.97;;;1.90;;
70953;SDS011;58618;47.490;8.736;2023-04-03T16:24:44;2.60;;;1.60;;
70953;SDS011;58618;47.490;8.736;2023-04-03T16:27:32;2.60;;;1.70;;
70953;SDS011;58618;47.490;8.736;2023-04-03T16:30:19;2.50;;;1.70;;
70953;SDS011;58618;47.490;8.736;2023-04-03T16:33:08;3.10;;;1.60;;
70953;SDS011;58618;47.490;8.736;2023-04-03T16:35:56;2.77;;;1.70;;
70953;SDS011;58618;47.490;8.736;2023-04-03T16:38:43;2.55;;;1.70;;
70953;SDS011;58618;47.490;8.736;2023-04-03T16:41:31;3.00;;;2.30;;
70953;SDS011;58618;47.490;8.736;2023-04-03T16:44:18;2.05;;;1.55;;
70953;SDS011;58618;47.490;8.736;2023-04-03T16:47:06;3.80;;;2.38;;
70953;SDS011;58618;47.490;8.736;2023-04-03T16:49:55;4.17;;;2.10;;
70953;SDS011;58618;47.490;8.736;2023-04-03T16:52:43;2.58;;;1.52;;
70953;SDS011;58618;47.490;8.736;2023-04-03T16:55:32;2.75;;;1.80;;
70953;SDS011;58618;47.490;8.736;2023-04-03T16:58:19;4.70;;;2.25;;
70953;SDS011;58618;47.490;8.736;2023-04-03T17:01:10;3.25;;;1.67;;
70953;SDS011;58618;47.490;8.736;2023-04-03T17:03:59;2.80;;;1.50;;
70953;SDS011;58618;47.490;8.736;2023-04-03T17:06:48;3.47;;;1.60;;
70953;SDS011;58618;47.490;8.736;2023-04-03T17:09:37;2.80;;;1.60;;
70953;SDS011;58618;47.490;8.736;2023-04-03T17:12:24;2.97;;;1.92;;
70953;SDS011;58618;47.490;8.736;2023-04-03T17:15:12;3.00;;;1.83;;
70953;SDS011;58618;47.490;8.736;2023-04-03T17:17:59;2.47;;;1.60;;
70953;SDS011;58618;47.490;8.736;2023-04-03T17:20:46;4.45;;;2.35;;
70953;SDS011;58618;47.490;8.736;2023-04-03T17:23:35;9.48;;;4.72;;
70953;SDS011;58618;47.490;8.736;2023-04-03T17:26:25;7.07;;;4.05;;